Date,TemperatureHighF,TemperatureAvgF,TemperatureLowF,DewpointHighF,DewpointAvgF,DewpointLowF,HumidityHigh,HumidityAvg,HumidityLow,PressureMaxIn,PressureMinIn,WindSpeedMaxMPH,WindSpeedAvgMPH,GustSpeedMaxMPH,PrecipitationSumIn
2013-2-1,75.9,48.5,51.8,39.0,3.0,-99.9,61,30,22,30.08,30.00,1,-250,3,0.00
2013-2-2,53.4,53.4,53.4,37.0,37.0,37.0,55,55,55,30.09,30.09,0,0,0,0.00
2013-2-4,83.2,41.6,83.2,34.0,-33.0,-99.9,17,8,17,29.90,29.81,0,-500,4,0.00
2013-2-5,78.8,74.2,67.0,36.0,35.0,33.0,28,24,21,29.87,29.75,1,0,5,0.00
2013-2-6,61.0,61.0,61.0,41.0,41.0,41.0,49,49,49,29.75,29.75,3,3,3,0.00
2013-2-7,74.7,74.7,74.7,30.0,30.0,30.0,19,19,19,29.84,29.84,2,2,7,0.00
2013-2-9,55.3,47.9,40.5,36.0,35.5,35.0,84,66,47,29.87,29.76,1,0,2,0.00
2013-2-10,62.6,62.6,62.6,33.0,33.0,33.0,33,33,33,29.88,29.88,1,1,6,0.00
2013-2-12,54.7,54.7,54.7,19.0,19.0,19.0,25,25,25,30.23,30.23,0,0,2,0.00
2013-2-13,64.6,53.8,43.1,24.0,22.0,20.0,39,30,21,30.13,30.11,0,0,2,0.00
2013-2-14,79.4,67.7,55.9,28.0,25.0,22.0,35,24,12,30.08,29.97,4,2,6,0.00
2013-2-17,62.0,62.0,62.0,37.0,37.0,37.0,40,40,40,29.79,29.79,3,3,8,0.00
2013-2-18,75.1,47.1,54.7,43.0,3.3,-99.9,65,34,17,29.85,29.75,4,-248,6,0.00
2013-2-19,58.5,56.7,54.8,42.0,38.0,34.0,63,52,40,29.74,29.70,1,1,9,0.00
2013-2-21,63.9,36.1,44.5,29.0,-15.3,-99.9,47,25,27,29.96,29.83,1,-333,5,0.00
2013-2-22,67.5,61.5,55.6,26.0,23.5,21.0,32,24,17,30.07,29.98,2,1,3,0.00
2013-2-23,64.5,62.4,61.1,36.0,34.0,30.0,39,35,27,29.88,29.76,4,2,10,0.00
2013-2-26,60.5,60.5,60.5,15.0,15.0,15.0,17,17,17,29.95,29.95,0,0,1,0.00
2013-2-27,70.9,66.6,58.2,15.0,13.7,12.0,18,13,10,30.19,30.15,2,1,6,0.00
2013-2-28,81.2,53.8,80.2,14.0,-26.3,-99.9,8,5,6,30.22,30.14,3,-332,3,0.00